createdAt,value
2018-02-08T00:00:57.012Z,23.2
2018-02-08T00:03:53.975Z,23.2
2018-02-08T00:06:51.462Z,23.2
2018-02-08T00:09:47.986Z,23.2
2018-02-08T00:12:45.409Z,23.2
2018-02-08T00:15:41.974Z,23.3
2018-02-08T00:24:33.442Z,23.3
2018-02-08T00:30:27.065Z,23.4
2018-02-08T00:36:21.026Z,23.5
2018-02-08T00:39:17.995Z,23.5
2018-02-08T00:42:15.225Z,23.6
2018-02-08T00:45:11.987Z,23.6
2018-02-08T00:48:09.198Z,23.7
2018-02-08T00:51:05.982Z,23.7
2018-02-08T00:57:00.470Z,23.8
2018-02-08T00:59:57.003Z,23.8
2018-02-08T01:05:51.061Z,24
2018-02-08T01:08:48.047Z,24
2018-02-08T01:11:45.287Z,24
2018-02-08T01:14:42.029Z,24.1
2018-02-08T01:17:39.101Z,24.2
2018-02-08T01:26:30.094Z,24.4
2018-02-08T01:29:27.065Z,24.6
2018-02-08T01:35:21.571Z,24.7
2018-02-08T01:38:18.053Z,24.8
2018-02-08T01:41:15.229Z,24.8
2018-02-08T01:47:09.146Z,25.1
2018-02-08T01:53:03.185Z,25.2
2018-02-08T01:56:00.117Z,25.3
2018-02-08T01:58:57.172Z,25.3
2018-02-08T02:01:54.902Z,25.3
2018-02-08T02:04:51.266Z,25.3
2018-02-08T02:07:48.194Z,25.4
2018-02-08T02:10:45.260Z,25.4
2018-02-08T02:13:42.222Z,25.4
2018-02-08T02:19:36.239Z,25.8
2018-02-08T02:22:33.103Z,26
2018-02-08T02:25:30.210Z,26.1
2018-02-08T02:31:24.200Z,26.4
2018-02-08T02:34:21.156Z,26.5
2018-02-08T02:46:09.246Z,26.8
2018-02-08T02:49:06.169Z,26.9
2018-02-08T02:52:03.262Z,26.8
2018-02-08T02:55:00.170Z,26.7
2018-02-08T03:00:54.235Z,26.6
2018-02-08T03:09:45.347Z,27
2018-02-08T03:12:42.227Z,26.9
2018-02-08T03:15:39.281Z,26.8
2018-02-08T03:18:36.203Z,26.9
2018-02-08T03:21:33.274Z,27.1
2018-02-08T03:24:30.242Z,27.3
2018-02-08T03:27:27.304Z,27.4
2018-02-08T03:30:24.256Z,27.6
2018-02-08T03:36:18.313Z,27.8
2018-02-08T03:39:15.252Z,27.8
2018-02-08T03:54:00.350Z,28.3
2018-02-08T03:56:57.674Z,28.3
2018-02-08T04:05:48.306Z,28.6
2018-02-08T04:11:42.382Z,28.8
2018-02-08T04:14:39.278Z,28.8
2018-02-08T04:17:36.358Z,28.9
2018-02-08T04:20:33.281Z,28.9
2018-02-08T04:23:30.391Z,29
2018-02-08T04:26:27.324Z,29.1
2018-02-08T04:32:21.343Z,29.2
2018-02-08T04:35:18.317Z,29.2
2018-02-08T04:41:12.390Z,29.4
2018-02-08T04:44:09.414Z,29.5
2018-02-08T04:50:03.406Z,29.6
2018-02-08T04:58:54.390Z,29.7
2018-02-08T05:01:51.327Z,29.8
2018-02-08T05:13:39.559Z,30
2018-02-08T05:16:36.419Z,30
2018-02-08T05:19:33.423Z,30
2018-02-08T05:22:30.402Z,30.1
2018-02-08T05:25:27.432Z,30.2
2018-02-08T05:37:15.469Z,30.3
2018-02-08T05:40:12.407Z,30.3
2018-02-08T05:43:09.673Z,30.4
2018-02-08T05:46:06.442Z,30.4
2018-02-08T05:49:03.456Z,30.4
2018-02-08T05:52:00.407Z,30.4
2018-02-08T05:54:57.502Z,30.6
2018-02-08T05:57:54.472Z,30.6
2018-02-08T06:15:36.657Z,30.8
2018-02-08T06:18:33.474Z,30.8
2018-02-08T06:27:24.931Z,31
2018-02-08T06:30:21.505Z,31
2018-02-08T06:33:18.500Z,31
2018-02-08T06:36:15.643Z,31
2018-02-08T06:45:07.007Z,31.1
2018-02-08T06:48:03.519Z,31.1
2018-02-08T06:51:00.556Z,31.2
2018-02-08T06:53:57.910Z,31.2
2018-02-08T06:56:54.578Z,31.2
2018-02-08T07:05:45.739Z,31.3
2018-02-08T07:08:42.525Z,31.3
2018-02-08T07:11:39.782Z,31.3
2018-02-08T07:14:36.973Z,31.4
2018-02-08T07:20:30.575Z,31.4
2018-02-08T07:23:27.606Z,31.4
2018-02-08T07:29:21.617Z,31.4
2018-02-08T07:32:18.707Z,31.4
2018-02-08T07:35:15.705Z,31.4
2018-02-08T07:38:12.581Z,31.4
2018-02-08T07:47:03.705Z,31.5
2018-02-08T07:50:01.009Z,31.4
2018-02-08T07:52:57.675Z,31.4
2018-02-08T07:55:54.605Z,31.4
2018-02-08T07:58:51.676Z,31.4
2018-02-08T08:04:45.848Z,31.4
2018-02-08T08:10:40.116Z,31.4
2018-02-08T08:13:36.652Z,31.3
2018-02-08T08:19:31.130Z,31.4
2018-02-08T08:22:27.627Z,31.4
2018-02-08T08:28:22.165Z,31.4
2018-02-08T08:31:18.688Z,31.4
2018-02-08T08:34:15.717Z,31.4
2018-02-08T08:37:13.198Z,31.4
2018-02-08T08:40:09.770Z,31.4
2018-02-08T08:43:07.176Z,31.3
2018-02-08T08:46:04.158Z,31.4
2018-02-08T08:49:00.752Z,31.4
2018-02-08T08:57:51.768Z,31.2
2018-02-08T09:00:48.713Z,31.2
2018-02-08T09:03:45.760Z,31.2
2018-02-08T09:06:42.728Z,31.2
2018-02-08T09:15:34.301Z,31
2018-02-08T09:18:30.773Z,31
2018-02-08T09:24:25.241Z,30.9
2018-02-08T09:45:04.295Z,30.4
2018-02-08T09:50:57.850Z,30.4
2018-02-08T09:56:51.844Z,30.1
2018-02-08T10:05:42.869Z,29.9
2018-02-08T10:08:39.829Z,29.9
2018-02-08T10:11:36.999Z,29.8
2018-02-08T10:32:16.002Z,29.4
2018-02-08T10:38:09.933Z,29.2
2018-02-08T10:41:06.852Z,29.1
2018-02-08T10:44:04.304Z,29
2018-02-08T10:47:00.892Z,28.9
2018-02-08T10:52:54.959Z,28.8
2018-02-08T10:55:51.903Z,28.8
2018-02-08T11:04:43.321Z,28.6
2018-02-08T11:10:36.991Z,28.5
2018-02-08T11:13:34.385Z,28.4
2018-02-08T11:19:27.977Z,28.3
2018-02-08T11:22:24.954Z,28.3
2018-02-08T11:25:22.024Z,28.2
2018-02-08T11:28:18.988Z,28.2
2018-02-08T11:31:15.986Z,28.2
2018-02-08T11:34:12.976Z,28.1
2018-02-08T11:37:09.999Z,28
2018-02-08T11:40:07.053Z,28
2018-02-08T11:43:03.997Z,28
2018-02-08T11:46:00.972Z,27.9
2018-02-08T11:48:58.019Z,27.9
2018-02-08T11:54:52.014Z,27.8
2018-02-08T11:57:48.982Z,27.8
2018-02-08T12:00:46.020Z,27.8
2018-02-08T12:12:34.804Z,27.6
2018-02-08T12:15:31.085Z,27.5
2018-02-08T12:24:22.076Z,27.4
2018-02-08T12:27:19.039Z,27.4
2018-02-08T12:30:16.076Z,27.4
2018-02-08T12:33:13.084Z,27.3
2018-02-08T12:36:10.090Z,27.3
2018-02-08T12:39:07.025Z,27.3
2018-02-08T12:42:04.673Z,27.3
2018-02-08T12:47:58.105Z,27.2
2018-02-08T12:50:55.077Z,27.2
2018-02-08T12:53:52.103Z,27.2
2018-02-08T12:56:49.048Z,27.2
2018-02-08T12:59:46.145Z,27.2
2018-02-08T13:02:43.041Z,27.2
2018-02-08T13:05:40.145Z,27.1
2018-02-08T13:08:37.086Z,27.1
2018-02-08T13:11:34.197Z,27.1
2018-02-08T13:14:31.177Z,27.2
2018-02-08T13:17:28.147Z,27.2
2018-02-08T13:23:22.158Z,27.1
2018-02-08T13:26:20.141Z,27.1
2018-02-08T13:29:16.177Z,27.1
2018-02-08T13:32:13.090Z,27.1
2018-02-08T13:35:10.188Z,27.1
2018-02-08T13:38:07.173Z,27.1
2018-02-08T13:41:04.251Z,27
2018-02-08T13:44:01.178Z,27
2018-02-08T13:49:55.210Z,27
2018-02-08T13:52:52.161Z,27
2018-02-08T14:01:43.186Z,26.9
2018-02-08T14:04:40.714Z,26.8
2018-02-08T14:07:37.196Z,26.8
2018-02-08T14:10:34.351Z,26.8
2018-02-08T14:16:28.206Z,26.8
2018-02-08T14:19:25.215Z,26.8
2018-02-08T14:22:22.220Z,26.8
2018-02-08T14:25:19.206Z,26.8
2018-02-08T14:28:16.246Z,26.7
2018-02-08T14:31:13.184Z,26.7
2018-02-08T14:34:10.267Z,26.6
2018-02-08T14:37:07.234Z,26.6
2018-02-08T14:40:04.303Z,26.6
2018-02-08T14:43:01.250Z,26.6
2018-02-08T14:45:58.705Z,26.5
2018-02-08T14:48:55.270Z,26.5
2018-02-08T14:51:52.290Z,26.4
2018-02-08T14:54:49.230Z,26.4
2018-02-08T15:00:43.333Z,26.4
2018-02-08T15:03:40.283Z,26.4
2018-02-08T15:06:37.280Z,26.3
2018-02-08T15:12:31.327Z,26.1
2018-02-08T15:15:28.390Z,26.1
2018-02-08T15:21:22.352Z,26
2018-02-08T15:24:19.298Z,26
2018-02-08T15:27:16.330Z,25.9
2018-02-08T15:30:13.323Z,25.9
2018-02-08T15:33:10.359Z,25.8
2018-02-08T15:36:07.290Z,25.9
2018-02-08T15:39:04.344Z,25.8
2018-02-08T15:42:01.404Z,25.8
2018-02-08T15:44:58.806Z,25.7
2018-02-08T15:47:55.345Z,25.7
2018-02-08T15:50:52.374Z,25.7
2018-02-08T15:53:49.292Z,25.7
2018-02-08T15:56:46.369Z,25.7
2018-02-08T15:59:43.757Z,25.6
2018-02-08T16:02:40.801Z,25.6
2018-02-08T16:05:37.383Z,25.6
2018-02-08T16:08:34.792Z,25.6
2018-02-08T16:17:25.482Z,25.6
2018-02-08T16:23:19.415Z,25.5
2018-02-08T16:26:16.391Z,25.5
2018-02-08T16:29:13.435Z,25.4
2018-02-08T16:32:10.405Z,25.4
2018-02-08T16:41:02.007Z,25.4
2018-02-08T16:46:55.885Z,25.4
2018-02-08T16:49:52.415Z,25.4
2018-02-08T16:52:49.533Z,25.4
2018-02-08T16:55:46.434Z,25.4
2018-02-08T16:58:43.473Z,25.4
2018-02-08T17:04:37.498Z,25.4
2018-02-08T17:07:34.951Z,25.4
2018-02-08T17:13:29.052Z,25.4
2018-02-08T17:16:25.842Z,25.3
2018-02-08T17:28:13.475Z,25.3
2018-02-08T17:31:10.468Z,25.3
2018-02-08T17:37:04.957Z,25.3
2018-02-08T17:40:01.863Z,25.3
2018-02-08T17:42:59.073Z,25.3
2018-02-08T17:45:55.890Z,25.3
2018-02-08T17:48:52.511Z,25.3
2018-02-08T17:51:49.529Z,25.3
2018-02-08T17:57:43.528Z,25.4
2018-02-08T18:00:40.916Z,25.4
2018-02-08T18:03:37.525Z,25.4
2018-02-08T18:06:34.957Z,25.4
2018-02-08T18:12:29.066Z,25.4
2018-02-08T18:15:25.510Z,25.4
2018-02-08T18:18:22.601Z,25.4
2018-02-08T18:27:13.579Z,25.4
2018-02-08T18:30:10.543Z,25.4
2018-02-08T18:33:07.594Z,25.4
2018-02-08T18:39:02.362Z,25.4
2018-02-08T18:41:59.146Z,25.4
2018-02-08T18:44:56.017Z,25.5
2018-02-08T18:50:49.620Z,25.5
2018-02-08T18:53:46.569Z,25.5
2018-02-08T18:56:43.668Z,25.5
2018-02-08T18:59:40.545Z,25.5
2018-02-08T19:08:32.030Z,25.6
2018-02-08T19:17:23.115Z,25.7
2018-02-08T19:23:16.664Z,25.8
2018-02-08T19:29:10.659Z,25.8
2018-02-08T19:32:08.051Z,25.8
2018-02-08T19:35:05.115Z,25.8
2018-02-08T19:38:02.076Z,25.8
2018-02-08T19:43:55.742Z,25.7
2018-02-08T19:46:52.626Z,25.7
2018-02-08T19:52:46.694Z,25.6
2018-02-08T19:55:43.679Z,25.6
2018-02-08T19:58:40.673Z,25.6
2018-02-08T20:01:37.659Z,25.6
2018-02-08T20:10:29.142Z,25.5
2018-02-08T20:13:25.670Z,25.4
2018-02-08T20:16:23.327Z,25.4
2018-02-08T20:19:20.181Z,25.4
2018-02-08T20:22:16.730Z,25.4
2018-02-08T20:25:13.708Z,25.4
2018-02-08T20:28:10.756Z,25.4
2018-02-08T20:37:01.751Z,25.3
2018-02-08T20:39:59.200Z,25.3
2018-02-08T20:42:56.271Z,25.3
2018-02-08T20:45:53.115Z,25.2
2018-02-08T20:48:49.819Z,25.2
2018-02-08T20:51:46.722Z,25.2
2018-02-08T20:54:44.271Z,25.2
2018-02-08T20:57:40.774Z,25.2
2018-02-08T21:00:38.243Z,25.2
2018-02-08T21:03:35.148Z,25.2
2018-02-08T21:12:26.390Z,25.2
2018-02-08T21:18:19.853Z,25.1
2018-02-08T21:21:16.769Z,25.1
2018-02-08T21:27:10.839Z,25
2018-02-08T21:30:07.768Z,25.1
2018-02-08T21:44:53.330Z,25.2
2018-02-08T21:47:49.814Z,25.3
2018-02-08T21:50:46.887Z,25.3
2018-02-08T21:53:43.844Z,25.3
2018-02-08T21:56:40.882Z,25.3
2018-02-08T21:59:37.836Z,25.3
2018-02-08T22:08:29.069Z,25.4
2018-02-08T22:11:25.982Z,25.3
2018-02-08T22:14:22.865Z,25.3
2018-02-08T22:17:20.035Z,25.3
2018-02-08T22:20:16.894Z,25.3
2018-02-08T22:23:13.870Z,25.3
2018-02-08T22:26:10.887Z,25.3
2018-02-08T22:29:07.891Z,25.4
2018-02-08T22:35:01.891Z,25.3
2018-02-08T22:37:58.925Z,25.3
2018-02-08T22:40:56.034Z,25.3
2018-02-08T22:43:53.317Z,25.3
2018-02-08T22:46:49.948Z,25.3
2018-02-08T22:49:46.902Z,25.4
2018-02-08T22:55:40.967Z,25.3
2018-02-08T22:58:37.978Z,25.3
2018-02-08T23:01:35.370Z,25.3
2018-02-08T23:04:32.426Z,25.3
2018-02-08T23:07:28.981Z,25.3
2018-02-08T23:10:26.326Z,25.3
2018-02-08T23:13:23.115Z,25.3
2018-02-08T23:16:19.991Z,25.3
2018-02-08T23:19:16.991Z,25.2
2018-02-08T23:22:14.033Z,25.2
2018-02-08T23:25:11.267Z,25.2
2018-02-08T23:28:08.498Z,25.2
2018-02-08T23:31:05.012Z,25.3
2018-02-08T23:36:59.528Z,25.3
2018-02-08T23:39:55.935Z,25.2
2018-02-08T23:45:50.098Z,25.2
2018-02-08T23:48:46.934Z,25.2
2018-02-08T23:51:44.481Z,25.3
2018-02-08T23:57:38.492Z,25.3
